Jiaonan, China
Current Conditions -  °F | °C
As of 2:00 AM on Tuesday 23 Dec 2014 (Local Time) from ZSQD Reporting Station
Clear Clear  
Wind Chill: 30°   Ceiling: Unl
Heat Index: 36°   Visibility: 4mi
Dew Point: 12°   Wind: 7mph
Humidity: 38%   Direction: 180°S
Pressure: 30.3"   Gusts: NA
Location:  35.88°N, 119.96°E
Report Text: ZSQD 221800Z 18003MPS 7000 NSC 02/M11 Q1026 NOSIG
Loading
Personal Weather Stations






























Interactive Weather Map New forecast layout! Learn more

10-Day Weather Forecast

Advertisements
Track Severe Weather on mobile